Terminal Aerodrome Forecast
Issued by NWS

Home | Current Version | Previous Version | Text Only | Print | Product List | Glossary On
Versions: 1 2 3 4 5 6 7 8 9 10 11 12 13 14 15 16 17
000
FTUS46 KLOX 260530
TAFPRB
TAF
KPRB 260530Z 2606/2706 19006KT P6SM OVC026
     FM261500 21008KT P6SM SCT012 BKN025
     FM262000 20012KT P6SM SCT020 BKN030
     FM270400 23006KT P6SM BKN030=

USA.gov is the U.S. government's official web portal to all federal, state and local government web resources and services.